Current | Forecast
Updated: 9:00 PM JST on June 23, 2017
Observed at Chitose AB, Japan
Temperature 61°F
Humidity 100%
Dew Point 61°F
Wind North at 7 mph
Pressure 29.71 in (Steady)
Conditions Mostly Cloudy
Visibility 6.2 miles
UV 0 out of 16
Clouds (FEW) : 1500 ft
Mostly Cloudy (BKN) : 4000 ft
Yesterday's Maximum 66°F
Yesterday's Minimum 59°F approx.
Yesterday's Heating Degree Days 2 approx.
Sunrise3:55 AM JST
Sunset7:16 PM JST
Moon Rise3:08 AM JST
Moon Set6:03 PM JST
Moon PhaseMoon Phase
Waning Crescent
Raw METARMETAR RJCC 231200Z 01006KT 9999 FEW015 BKN040 16/16 Q1006 RMK 1ST015 7SC040 A2973


Monday
. High: 64° F.
Tuesday
. High: 62° F.
Wednesday
. High: 62° F.
Thursday
. High: 62° F.
Friday
. High: 60° F.
Saturday
. High: 59° F.
Sunday
. High: 51° F.
Monday
. High: 55° F.

Units: English | Metric

Find the Weather for any City, State or Zipcode, or Country:

U.S. State List | Severe Weather | Tropical Storms | Ski Conditions
United States | Canada | Central America | South America | Asia | Europe | Australia | Africa | Islands

Weather Underground

© Copyright 2017
The Weather Company, LLC